Time;durP1;ratioP1;P1;durP2;ratioP2;P2;SDS_P1;SDS_P2;PMS_P1;PMS_P2;Temp;Humidity;BMP_temperature;BMP_pressure;BME280_temperature;BME280_humidity;BME280_pressure;Samples;Min_cycle;Max_cycle;Signal;HPM_P1;HPM_P2
2022/12/03 05:00:25;;;;;;;3.17;3.05;;;0.70;99.90;;;;;;5963712;23;20641;-70
2022/12/03 05:02:52;;;;;;;7.82;7.05;;;0.70;99.90;;;;;;4966510;28;20215;-69
2022/12/03 05:05:19;;;;;;;4.82;4.53;;;0.70;99.90;;;;;;4971712;28;20254;-71
2022/12/03 05:07:45;;;;;;;5.30;4.85;;;0.70;99.90;;;;;;4987733;28;20207;-70
2022/12/03 05:10:12;;;;;;;8.57;6.00;;;0.60;99.90;;;;;;4981884;28;20208;-70
2022/12/03 05:12:39;;;;;;;4.13;3.30;;;0.70;99.90;;;;;;4966683;28;20208;-70
2022/12/03 05:15:07;;;;;;;9.38;7.22;;;0.70;99.90;;;;;;4968290;28;20276;-70
2022/12/03 05:17:35;;;;;;;6.63;5.10;;;0.60;99.90;;;;;;4959170;28;20211;-70
2022/12/03 05:22:46;;;;;;;3.53;2.47;;;0.70;99.90;;;;;;4969297;28;20271;-69
2022/12/03 05:25:12;;;;;;;6.63;5.57;;;0.70;99.90;;;;;;4968406;28;20247;-70
2022/12/03 05:27:39;;;;;;;7.35;5.32;;;0.70;99.90;;;;;;4971929;28;20631;-69
2022/12/03 05:30:08;;;;;;;4.05;3.28;;;0.70;99.90;;;;;;4958223;28;20238;-70
2022/12/03 05:32:37;;;;;;;7.97;5.82;;;0.70;99.90;;;;;;4961993;28;20253;-70
2022/12/03 05:35:04;;;;;;;11.32;6.13;;;0.70;99.90;;;;;;4957133;28;20251;-69
2022/12/03 05:37:31;;;;;;;10.25;9.07;;;0.70;99.90;;;;;;4962241;28;20702;-69
2022/12/03 05:39:57;;;;;;;5.28;4.70;;;0.70;99.90;;;;;;4968992;28;20273;-69
2022/12/03 05:45:17;;;;;;;6.75;5.10;;;0.70;99.90;;;;;;4935475;28;20698;-68
2022/12/03 05:47:45;;;;;;;12.07;7.38;;;0.70;99.90;;;;;;4957077;28;20216;-68
2022/12/03 05:50:12;;;;;;;21.40;5.30;;;0.70;99.90;;;;;;4963690;28;20211;-68
2022/12/03 05:52:39;;;;;;;6.80;6.22;;;0.70;99.90;;;;;;4958608;28;20225;-68
2022/12/03 05:55:06;;;;;;;4.80;4.60;;;0.70;99.90;;;;;;4958967;28;20258;-68
2022/12/03 05:57:33;;;;;;;11.38;4.28;;;0.70;99.90;;;;;;4958703;28;20207;-69
2022/12/03 06:00:00;;;;;;;7.72;6.57;;;0.70;99.90;;;;;;4959870;28;20215;-68
2022/12/03 06:02:27;;;;;;;8.90;5.30;;;0.70;99.90;;;;;;4952939;28;20612;-68
2022/12/03 06:04:55;;;;;;;4.85;2.90;;;0.70;99.90;;;;;;4960403;28;20200;-68
2022/12/03 06:07:21;;;;;;;10.35;3.65;;;0.60;99.90;;;;;;4964532;28;20559;-68
2022/12/03 06:09:48;;;;;;;11.68;4.55;;;0.70;99.90;;;;;;4962867;28;20227;-68
2022/12/03 06:12:15;;;;;;;14.13;2.45;;;0.70;99.90;;;;;;4961580;28;20240;-69
2022/12/03 06:14:41;;;;;;;4.75;4.00;;;0.70;99.90;;;;;;4957489;28;20213;-69
2022/12/03 06:17:08;;;;;;;4.50;3.50;;;0.60;99.90;;;;;;4953327;28;20227;-69
2022/12/03 06:19:35;;;;;;;2.47;2.08;;;0.70;99.90;;;;;;4952183;28;20303;-69
2022/12/03 06:22:03;;;;;;;1.92;1.85;;;0.70;99.90;;;;;;4960576;28;20235;-68
2022/12/03 06:24:30;;;;;;;7.95;5.32;;;0.70;99.90;;;;;;4967178;28;20670;-69
2022/12/03 06:26:56;;;;;;;5.50;4.80;;;0.70;99.90;;;;;;4958411;28;20361;-68
2022/12/03 06:29:23;;;;;;;4.63;4.22;;;0.60;99.90;;;;;;4961481;28;20211;-68
2022/12/03 06:31:50;;;;;;;3.92;2.85;;;0.60;99.90;;;;;;4960145;28;20706;-68
2022/12/03 06:34:16;;;;;;;6.25;5.50;;;0.60;99.90;;;;;;4960039;28;20216;-69
2022/12/03 06:36:43;;;;;;;8.32;6.32;;;0.60;99.90;;;;;;4972036;28;20235;-69
2022/12/03 06:39:11;;;;;;;6.25;5.20;;;0.60;99.90;;;;;;4969139;28;20211;-69
2022/12/03 06:41:38;;;;;;;11.57;5.97;;;0.60;99.90;;;;;;4952489;28;20298;-70
2022/12/03 06:44:05;;;;;;;7.10;6.53;;;0.60;99.90;;;;;;4964485;28;20236;-69
2022/12/03 06:46:31;;;;;;;5.28;4.88;;;0.60;99.90;;;;;;4960330;28;20354;-70
2022/12/03 06:48:58;;;;;;;4.68;4.15;;;0.60;99.90;;;;;;4967617;28;20218;-70
2022/12/03 06:51:25;;;;;;;3.42;3.10;;;0.50;99.90;;;;;;4963102;28;20227;-70
2022/12/03 06:53:52;;;;;;;4.78;3.85;;;0.50;99.90;;;;;;4963878;28;20358;-69
2022/12/03 06:56:20;;;;;;;4.60;4.32;;;0.50;99.90;;;;;;4969830;28;20567;-71
2022/12/03 06:58:46;;;;;;;3.58;3.45;;;0.50;99.90;;;;;;4968921;28;20218;-70
2022/12/03 07:01:13;;;;;;;8.30;5.78;;;0.50;99.90;;;;;;4959671;28;20238;-69
2022/12/03 07:03:40;;;;;;;6.68;6.18;;;0.50;99.90;;;;;;4957234;28;20705;-69
2022/12/03 07:06:06;;;;;;;10.32;3.97;;;0.50;99.90;;;;;;4959590;28;20207;-70
2022/12/03 07:08:33;;;;;;;6.15;5.45;;;0.40;99.90;;;;;;4956453;28;20219;-69
2022/12/03 07:11:00;;;;;;;8.27;4.75;;;0.40;99.90;;;;;;4965592;28;20233;-69
2022/12/03 07:13:28;;;;;;;18.17;6.80;;;0.40;99.90;;;;;;4951352;28;20215;-69
2022/12/03 07:15:55;;;;;;;8.18;5.28;;;0.40;99.90;;;;;;4950915;29;20227;-69
2022/12/03 07:18:21;;;;;;;7.53;4.40;;;0.40;99.90;;;;;;4954196;28;20988;-70
2022/12/03 07:20:48;;;;;;;7.47;6.72;;;0.40;99.90;;;;;;4960366;28;20230;-69
2022/12/03 07:23:15;;;;;;;7.75;6.60;;;0.40;99.90;;;;;;4966788;28;20553;-69
2022/12/03 07:25:42;;;;;;;16.63;5.75;;;0.40;99.90;;;;;;4960575;28;20203;-69
2022/12/03 07:28:08;;;;;;;8.05;4.25;;;0.40;99.90;;;;;;4951809;28;20735;-69
2022/12/03 07:30:36;;;;;;;4.18;2.78;;;0.40;99.90;;;;;;4967195;28;20793;-69
2022/12/03 07:33:03;;;;;;;11.45;6.93;;;0.30;99.90;;;;;;4965980;28;20209;-69
2022/12/03 07:35:30;;;;;;;6.18;2.80;;;0.30;99.90;;;;;;4964024;28;20236;-69
2022/12/03 07:37:56;;;;;;;5.38;3.67;;;0.30;99.90;;;;;;4958651;28;20663;-68
2022/12/03 07:40:23;;;;;;;3.83;3.53;;;0.30;99.90;;;;;;4962041;28;20219;-69
2022/12/03 07:42:50;;;;;;;8.88;4.50;;;0.40;99.90;;;;;;4960462;28;20551;-69
2022/12/03 07:45:17;;;;;;;4.68;2.90;;;0.40;99.90;;;;;;4951203;29;20224;-68
2022/12/03 07:47:45;;;;;;;5.20;4.75;;;0.40;99.90;;;;;;4951250;29;20219;-69
2022/12/03 07:50:12;;;;;;;7.45;4.78;;;0.40;99.90;;;;;;4957911;28;20224;-70
2022/12/03 07:52:39;;;;;;;15.35;5.07;;;0.40;99.90;;;;;;4958413;28;20234;-68
2022/12/03 07:55:06;;;;;;;12.57;4.72;;;0.50;99.90;;;;;;4959184;28;20217;-69
2022/12/03 07:57:33;;;;;;;5.65;5.25;;;0.50;99.90;;;;;;4960123;28;20222;-69
2022/12/03 08:00:00;;;;;;;16.50;7.85;;;0.50;99.90;;;;;;4966478;28;20270;-69
2022/12/03 08:02:26;;;;;;;8.57;5.47;;;0.50;99.90;;;;;;4957702;28;20575;-68
2022/12/03 08:04:54;;;;;;;39.05;5.53;;;0.50;99.90;;;;;;4960485;28;20739;-68
2022/12/03 08:07:21;;;;;;;6.35;4.68;;;0.50;99.90;;;;;;4955818;28;20220;-69
2022/12/03 08:09:49;;;;;;;14.82;4.70;;;0.50;99.90;;;;;;4957478;28;20769;-69
2022/12/03 08:12:17;;;;;;;9.52;4.38;;;0.60;99.90;;;;;;4950605;29;20242;-69
2022/12/03 08:14:44;;;;;;;2.08;1.98;;;0.60;99.90;;;;;;4950875;28;20247;-70
2022/12/03 08:17:12;;;;;;;5.80;2.22;;;0.70;99.90;;;;;;4962185;28;20234;-68
2022/12/03 08:19:39;;;;;;;10.45;2.58;;;0.70;99.90;;;;;;4955804;28;20240;-69
2022/12/03 08:22:12;;;;;;;5.50;4.57;;;0.80;99.90;;;;;;4960304;28;20251;-69
2022/12/03 08:24:39;;;;;;;15.13;5.93;;;0.90;99.90;;;;;;4950464;29;20217;-68
2022/12/03 08:27:16;;;;;;;8.48;4.63;;;0.90;99.90;;;;;;4950719;29;20213;-68
2022/12/03 08:29:42;;;;;;;5.65;2.55;;;1.00;99.90;;;;;;4954125;28;20224;-69
2022/12/03 08:32:11;;;;;;;11.50;6.80;;;1.00;99.90;;;;;;4962382;28;20279;-68
2022/12/03 08:34:40;;;;;;;5.22;4.78;;;1.10;99.90;;;;;;4970068;28;20228;-69
2022/12/03 08:37:14;;;;;;;5.45;4.70;;;1.10;99.90;;;;;;4963880;28;20229;-70
2022/12/03 08:39:44;;;;;;;4.05;3.75;;;1.10;99.90;;;;;;4954958;29;20272;-69
2022/12/03 08:45:33;;;;;;;6.57;5.85;;;1.00;99.90;;;;;;4952576;29;20701;-68
2022/12/03 08:48:03;;;;;;;9.50;4.60;;;1.00;99.90;;;;;;4953760;28;20296;-69
2022/12/03 08:50:31;;;;;;;4.57;4.15;;;0.90;99.90;;;;;;4953517;28;20290;-69
2022/12/03 08:53:15;;;;;;;6.95;3.83;;;1.00;99.90;;;;;;4953784;29;20212;-68
2022/12/03 08:55:46;;;;;;;4.97;4.78;;;1.00;99.90;;;;;;4964729;28;20241;-69
2022/12/03 08:58:21;;;;;;;14.68;4.78;;;1.10;99.90;;;;;;4949135;28;20693;-70
2022/12/03 09:00:48;;;;;;;4.63;3.38;;;1.10;99.90;;;;;;4952278;28;20269;-69
2022/12/03 09:03:18;;;;;;;4.45;4.10;;;1.00;99.90;;;;;;4957734;28;20216;-70
2022/12/03 09:05:45;;;;;;;9.07;4.57;;;1.10;99.90;;;;;;4960530;28;20204;-69
2022/12/03 09:08:13;;;;;;;5.90;3.42;;;1.10;99.90;;;;;;4975208;28;20216;-70
2022/12/03 09:10:40;;;;;;;3.80;3.50;;;1.20;99.90;;;;;;4962821;28;20244;-71
2022/12/03 09:13:06;;;;;;;6.70;3.92;;;1.30;99.90;;;;;;4966337;28;20204;-70
2022/12/03 09:15:33;;;;;;;3.30;3.05;;;1.30;99.90;;;;;;4960503;28;20223;-70
2022/12/03 09:17:59;;;;;;;4.55;4.25;;;1.30;99.90;;;;;;4963707;28;20221;-70
2022/12/03 09:20:26;;;;;;;6.53;4.88;;;1.30;99.90;;;;;;4960418;28;20213;-69
2022/12/03 09:22:53;;;;;;;4.00;3.63;;;1.30;99.90;;;;;;4968564;28;20215;-70
2022/12/03 09:25:21;;;;;;;3.90;3.63;;;1.40;99.90;;;;;;4971706;28;20201;-69
2022/12/03 09:27:48;;;;;;;11.18;7.00;;;1.40;99.90;;;;;;4976926;28;20219;-71
2022/12/03 09:30:16;;;;;;;18.90;4.90;;;1.30;99.90;;;;;;4964713;28;20686;-69
2022/12/03 09:32:42;;;;;;;8.32;4.47;;;1.30;99.90;;;;;;4954947;28;20209;-69
2022/12/03 09:35:09;;;;;;;7.07;6.38;;;1.30;99.90;;;;;;4967700;28;20215;-71
2022/12/03 09:37:36;;;;;;;2.45;2.25;;;1.30;99.90;;;;;;4962688;28;20236;-70
2022/12/03 09:40:03;;;;;;;4.07;3.88;;;1.40;99.90;;;;;;4960851;28;20217;-69
2022/12/03 09:42:31;;;;;;;4.22;3.90;;;1.40;99.90;;;;;;4964541;28;20328;-70
2022/12/03 09:44:58;;;;;;;7.20;3.20;;;1.40;99.90;;;;;;4956762;28;20343;-69
2022/12/03 09:47:25;;;;;;;26.45;6.60;;;1.40;99.90;;;;;;4971932;28;20201;-69
2022/12/03 09:49:52;;;;;;;5.72;5.30;;;1.40;99.90;;;;;;4961367;28;20846;-69
2022/12/03 09:52:24;;;;;;;14.27;6.63;;;1.40;99.90;;;;;;4954492;28;20714;-69
2022/12/03 09:54:51;;;;;;;9.73;6.00;;;1.40;99.90;;;;;;4957978;28;20691;-71
2022/12/03 09:57:18;;;;;;;5.55;4.40;;;1.40;99.90;;;;;;4963041;28;20232;-69
2022/12/03 09:59:46;;;;;;;13.32;6.82;;;1.40;99.90;;;;;;4969958;28;20212;-69
2022/12/03 10:02:20;;;;;;;7.90;5.75;;;1.40;99.90;;;;;;4964943;28;20233;-68
2022/12/03 10:04:46;;;;;;;7.10;6.22;;;1.40;99.90;;;;;;4959476;28;20264;-68
2022/12/03 10:07:13;;;;;;;9.65;5.47;;;1.50;99.90;;;;;;4964142;28;20231;-69
2022/12/03 10:09:40;;;;;;;17.58;4.30;;;1.40;99.90;;;;;;4961451;28;20216;-70
2022/12/03 10:12:11;;;;;;;10.15;2.78;;;1.50;99.90;;;;;;4956787;28;20239;-69
2022/12/03 10:14:38;;;;;;;7.97;5.28;;;1.50;99.90;;;;;;4956034;28;20244;-70
2022/12/03 10:17:06;;;;;;;5.07;4.75;;;1.50;99.90;;;;;;4963751;28;20690;-68
2022/12/03 10:19:36;;;;;;;5.68;5.15;;;1.40;99.90;;;;;;4958563;28;20819;-68
2022/12/03 10:22:03;;;;;;;9.30;5.05;;;1.50;99.90;;;;;;4961246;28;20236;-69
2022/12/03 10:24:31;;;;;;;9.07;4.55;;;1.50;99.90;;;;;;4960506;28;20576;-69
2022/12/03 10:27:00;;;;;;;5.00;4.55;;;1.50;99.90;;;;;;4962433;28;20204;-70
2022/12/03 10:29:28;;;;;;;12.45;6.45;;;1.50;99.90;;;;;;4955753;28;20208;-69
2022/12/03 10:31:56;;;;;;;14.02;6.63;;;1.50;99.90;;;;;;4960034;28;20233;-70
2022/12/03 10:34:31;;;;;;;11.68;8.32;;;1.50;99.90;;;;;;4962827;28;20568;-71
2022/12/03 10:37:16;;;;;;;10.95;8.15;;;1.50;99.90;;;;;;4963632;28;20223;-71
2022/12/03 10:40:00;;;;;;;8.02;4.20;;;1.50;99.90;;;;;;4962837;28;20212;-70
2022/12/03 10:42:28;;;;;;;13.25;5.00;;;1.50;99.90;;;;;;4954233;28;20231;-68
2022/12/03 10:45:14;;;;;;;12.73;5.60;;;1.50;99.90;;;;;;4953002;28;20573;-69
2022/12/03 10:47:41;;;;;;;6.43;4.53;;;1.50;99.90;;;;;;4959716;28;20207;-69
2022/12/03 10:50:18;;;;;;;15.38;6.53;;;1.50;99.90;;;;;;4954634;28;20279;-69
2022/12/03 10:52:45;;;;;;;5.78;4.85;;;1.50;99.90;;;;;;4953716;28;20223;-70
2022/12/03 10:55:13;;;;;;;18.65;8.07;;;1.60;99.90;;;;;;4969906;28;20212;-68
2022/12/03 10:57:40;;;;;;;8.68;7.93;;;1.60;99.90;;;;;;4964123;28;20352;-69
2022/12/03 11:00:08;;;;;;;2.42;2.28;;;1.60;99.90;;;;;;4960773;28;20209;-70
2022/12/03 11:02:35;;;;;;;5.88;5.28;;;1.60;99.90;;;;;;4952660;29;20233;-69
2022/12/03 11:05:02;;;;;;;6.25;5.43;;;1.60;99.90;;;;;;4949769;29;20251;-69
2022/12/03 11:07:30;;;;;;;5.53;4.50;;;1.70;99.90;;;;;;4950897;29;20275;-69
2022/12/03 11:09:59;;;;;;;6.18;5.88;;;1.70;99.90;;;;;;4952228;28;20209;-70
2022/12/03 11:12:27;;;;;;;13.18;7.53;;;1.70;99.90;;;;;;4960845;28;20261;-69
2022/12/03 11:15:06;;;;;;;10.07;4.50;;;1.70;99.90;;;;;;4955133;28;20213;-69
2022/12/03 11:17:44;;;;;;;6.35;4.93;;;1.70;99.90;;;;;;4961304;28;20232;-69
2022/12/03 11:20:37;;;;;;;13.55;7.53;;;1.80;99.90;;;;;;4958002;28;20288;-70
2022/12/03 11:23:10;;;;;;;17.08;5.90;;;1.80;99.90;;;;;;4960986;28;20208;-69
2022/12/03 11:25:49;;;;;;;6.35;5.80;;;1.80;99.90;;;;;;4964486;28;20648;-70
2022/12/03 11:28:51;;;;;;;9.75;7.40;;;1.80;99.90;;;;;;4968712;28;20328;-70
2022/12/03 11:31:38;;;;;;;5.72;4.38;;;1.80;99.90;;;;;;4952853;28;20256;-70
2022/12/03 11:34:47;;;;;;;18.17;8.35;;;1.80;99.90;;;;;;4960265;28;20204;-70
2022/12/03 11:37:27;;;;;;;10.45;5.13;;;1.80;99.90;;;;;;4957860;28;20313;-70
2022/12/03 11:40:26;;;;;;;6.32;4.70;;;1.80;99.90;;;;;;4960610;28;20547;-70
2022/12/03 11:42:53;;;;;;;4.22;3.80;;;1.70;99.90;;;;;;4952718;28;20209;-70
2022/12/03 11:45:30;;;;;;;5.85;4.38;;;1.70;99.90;;;;;;4959832;28;20208;-70
2022/12/03 11:48:11;;;;;;;10.75;4.20;;;1.70;99.90;;;;;;4950952;29;20322;-71
2022/12/03 11:50:41;;;;;;;6.45;4.45;;;1.70;99.90;;;;;;4952565;28;20233;-70
2022/12/03 11:53:16;;;;;;;8.93;5.57;;;1.70;99.90;;;;;;4955529;28;20213;-69
2022/12/03 11:55:47;;;;;;;6.30;5.95;;;1.70;99.90;;;;;;4966398;28;20215;-69
2022/12/03 11:58:18;;;;;;;11.70;7.53;;;1.70;99.90;;;;;;4953495;28;20229;-69
2022/12/03 12:00:48;;;;;;;6.38;4.75;;;1.70;99.90;;;;;;4973606;28;20240;-71
2022/12/03 12:03:23;;;;;;;4.07;3.80;;;1.60;99.90;;;;;;4960762;28;20268;-70
2022/12/03 12:06:00;;;;;;;6.13;5.82;;;1.70;99.90;;;;;;4961131;28;20801;-71
2022/12/03 12:08:27;;;;;;;7.60;6.97;;;1.70;99.90;;;;;;4967788;28;20231;-71
2022/12/03 12:10:55;;;;;;;8.52;5.15;;;1.70;99.90;;;;;;4967345;28;20244;-70
2022/12/03 12:13:27;;;;;;;19.45;7.90;;;1.70;99.90;;;;;;4965631;28;20210;-71
2022/12/03 12:15:54;;;;;;;7.60;5.15;;;1.80;99.90;;;;;;4960019;28;20209;-68
2022/12/03 12:18:35;;;;;;;5.10;4.22;;;1.70;99.90;;;;;;4963808;28;20232;-70
2022/12/03 12:21:38;;;;;;;13.73;4.90;;;1.80;99.90;;;;;;4968045;28;20228;-70
2022/12/03 12:24:37;;;;;;;8.75;4.75;;;1.70;99.90;;;;;;4955936;28;20268;-71
2022/12/03 12:27:07;;;;;;;9.18;6.20;;;1.80;99.90;;;;;;4961620;28;20521;-69
2022/12/03 12:29:34;;;;;;;6.22;3.67;;;1.70;99.90;;;;;;4953749;29;20217;-70
2022/12/03 12:32:12;;;;;;;5.80;4.10;;;1.70;99.90;;;;;;4955126;29;20256;-69
2022/12/03 12:34:39;;;;;;;10.07;6.30;;;1.80;99.90;;;;;;4954114;28;20234;-65
2022/12/03 12:37:11;;;;;;;6.50;6.10;;;1.80;99.90;;;;;;4966535;28;20236;-62
2022/12/03 12:39:38;;;;;;;7.38;4.72;;;1.80;99.90;;;;;;4970785;28;20205;-63
2022/12/03 12:42:25;;;;;;;2.45;2.08;;;1.80;99.90;;;;;;4961099;28;20328;-64
2022/12/03 12:44:52;;;;;;;7.15;4.82;;;1.80;99.90;;;;;;4956407;28;20205;-64
2022/12/03 12:47:19;;;;;;;5.53;5.13;;;1.70;99.90;;;;;;4972592;28;20212;-64
2022/12/03 12:49:45;;;;;;;8.10;7.35;;;1.70;99.90;;;;;;4963639;28;20233;-63
2022/12/03 12:52:14;;;;;;;14.20;4.63;;;1.70;99.90;;;;;;4956916;28;20533;-63
2022/12/03 12:54:41;;;;;;;6.30;4.93;;;1.70;99.90;;;;;;4960673;28;20660;-62
2022/12/03 12:57:14;;;;;;;4.97;4.63;;;1.80;99.90;;;;;;4964294;28;20233;-62
2022/12/03 12:59:41;;;;;;;3.80;2.38;;;1.80;99.90;;;;;;4961851;28;20208;-63
2022/12/03 13:02:38;;;;;;;7.55;4.47;;;1.80;99.90;;;;;;4958184;28;20229;-66
2022/12/03 13:05:05;;;;;;;10.90;5.53;;;1.90;99.90;;;;;;4960933;28;20299;-64
2022/12/03 13:07:32;;;;;;;5.05;4.63;;;1.80;99.90;;;;;;4955259;28;20213;-64
2022/12/03 13:10:07;;;;;;;6.32;5.70;;;1.80;99.90;;;;;;4965126;28;20232;-62
2022/12/03 13:12:36;;;;;;;8.50;5.00;;;1.80;99.90;;;;;;4963630;28;20235;-64
2022/12/03 13:15:06;;;;;;;5.00;4.72;;;1.70;99.90;;;;;;4965862;28;20267;-63
2022/12/03 13:17:33;;;;;;;8.02;5.70;;;1.70;99.90;;;;;;4957063;28;20699;-63
2022/12/03 13:20:03;;;;;;;5.85;3.78;;;1.70;99.90;;;;;;4963235;28;20679;-64
2022/12/03 13:22:30;;;;;;;4.50;4.40;;;1.70;99.90;;;;;;4962270;28;20248;-63
2022/12/03 13:24:58;;;;;;;3.38;3.28;;;1.70;99.90;;;;;;4962570;28;20259;-63
2022/12/03 13:27:28;;;;;;;10.82;5.60;;;1.70;99.90;;;;;;4957167;28;20209;-62
2022/12/03 13:30:00;;;;;;;4.55;4.45;;;1.70;99.90;;;;;;4959424;28;20220;-62
2022/12/03 13:32:30;;;;;;;19.73;10.45;;;1.70;99.90;;;;;;4958459;28;20290;-63
2022/12/03 13:35:02;;;;;;;9.75;2.97;;;1.70;99.90;;;;;;4963814;28;20211;-61
2022/12/03 13:37:28;;;;;;;7.35;4.63;;;1.70;99.90;;;;;;4957015;28;20228;-61
2022/12/03 13:39:57;;;;;;;4.25;3.83;;;1.70;99.90;;;;;;4962221;28;20221;-60
2022/12/03 13:42:41;;;;;;;7.10;4.00;;;1.70;99.90;;;;;;4972444;28;20235;-62
2022/12/03 13:45:29;;;;;;;3.63;3.38;;;1.70;99.90;;;;;;4961670;28;20197;-61
2022/12/03 13:47:59;;;;;;;3.97;3.10;;;1.70;99.90;;;;;;4962157;28;20193;-63
2022/12/03 13:50:33;;;;;;;5.85;2.53;;;1.60;99.90;;;;;;4961313;28;20299;-60
2022/12/03 13:53:01;;;;;;;9.57;2.95;;;1.70;99.90;;;;;;4962490;28;20315;-61
2022/12/03 13:55:30;;;;;;;17.55;8.20;;;1.60;99.90;;;;;;4960057;28;20678;-61
2022/12/03 13:57:57;;;;;;;8.02;5.22;;;1.60;99.90;;;;;;4960138;28;20737;-61
2022/12/03 14:00:25;;;;;;;14.25;6.72;;;1.60;99.90;;;;;;4961057;28;20232;-59
2022/12/03 14:02:51;;;;;;;8.48;6.00;;;1.60;99.90;;;;;;4964713;28;20223;-61
2022/12/03 14:05:18;;;;;;;17.02;6.72;;;1.60;99.90;;;;;;4977486;28;20227;-63
2022/12/03 14:07:45;;;;;;;6.38;4.22;;;1.60;99.90;;;;;;4974435;28;20299;-62
2022/12/03 14:10:12;;;;;;;3.53;3.33;;;1.60;99.90;;;;;;4974396;28;20208;-62
2022/12/03 14:12:39;;;;;;;20.50;9.05;;;1.60;99.90;;;;;;4958599;28;20577;-62
2022/12/03 14:15:07;;;;;;;10.57;5.97;;;1.60;99.90;;;;;;4962583;28;20205;-62
2022/12/03 14:17:36;;;;;;;7.78;5.90;;;1.60;99.90;;;;;;4953092;28;20624;-63
2022/12/03 14:20:03;;;;;;;7.40;4.57;;;1.60;99.90;;;;;;4971997;28;20201;-61
2022/12/03 14:22:30;;;;;;;5.43;4.63;;;1.60;99.90;;;;;;4963631;28;20308;-61
2022/12/03 14:24:57;;;;;;;16.88;7.07;;;1.60;99.90;;;;;;4967963;28;20279;-63
2022/12/03 14:27:24;;;;;;;8.13;4.05;;;1.60;99.90;;;;;;4955329;28;20201;-63
2022/12/03 14:29:51;;;;;;;4.32;3.90;;;1.50;99.90;;;;;;4963548;28;20212;-61
2022/12/03 14:32:18;;;;;;;11.52;6.60;;;1.50;99.90;;;;;;4960599;28;20283;-63
2022/12/03 14:34:46;;;;;;;5.72;5.28;;;1.60;99.90;;;;;;4961071;28;20216;-63
2022/12/03 14:37:12;;;;;;;13.07;7.60;;;1.60;99.90;;;;;;4958677;28;20216;-64
2022/12/03 14:39:39;;;;;;;5.25;2.05;;;1.60;99.90;;;;;;4961761;28;20267;-62
2022/12/03 14:42:15;;;;;;;12.38;5.30;;;1.60;99.90;;;;;;4962515;28;20569;-62
2022/12/03 14:44:43;;;;;;;7.97;6.30;;;1.60;99.90;;;;;;4966554;28;20212;-62
2022/12/03 14:47:10;;;;;;;5.28;4.40;;;1.50;99.90;;;;;;4970908;28;20208;-63
2022/12/03 14:49:37;;;;;;;8.07;6.93;;;1.50;99.90;;;;;;4968123;28;20213;-62
2022/12/03 14:52:05;;;;;;;9.70;3.00;;;1.50;99.90;;;;;;4978105;28;20606;-62
2022/12/03 14:54:32;;;;;;;9.27;7.38;;;1.50;99.90;;;;;;4967112;28;20251;-64
2022/12/03 14:56:59;;;;;;;5.07;2.50;;;1.50;99.90;;;;;;4972530;28;20267;-64
2022/12/03 14:59:26;;;;;;;4.85;3.95;;;1.50;99.90;;;;;;4959671;28;20791;-63
2022/12/03 15:01:53;;;;;;;9.73;8.60;;;1.50;99.90;;;;;;4954082;28;20599;-63
2022/12/03 15:04:19;;;;;;;15.60;4.15;;;1.50;99.90;;;;;;4965198;28;20568;-64
2022/12/03 15:06:46;;;;;;;7.95;6.60;;;1.50;99.90;;;;;;4956190;28;20216;-62
2022/12/03 15:09:14;;;;;;;6.93;4.70;;;1.50;99.90;;;;;;4960327;28;20206;-62
2022/12/03 15:11:41;;;;;;;14.23;8.65;;;1.50;99.90;;;;;;4957462;28;20628;-63
2022/12/03 15:14:08;;;;;;;6.35;3.78;;;1.50;99.90;;;;;;4952376;28;20216;-62
2022/12/03 15:16:35;;;;;;;7.50;4.80;;;1.50;99.90;;;;;;4958456;28;20227;-61
2022/12/03 15:19:02;;;;;;;7.13;6.53;;;1.50;99.90;;;;;;4960364;28;20227;-60
2022/12/03 15:21:31;;;;;;;6.43;4.80;;;1.50;99.90;;;;;;4960088;28;20232;-62
2022/12/03 15:23:58;;;;;;;10.20;4.03;;;1.50;99.90;;;;;;4967007;28;20220;-61
2022/12/03 15:26:26;;;;;;;8.10;6.10;;;1.50;99.90;;;;;;4959091;28;20687;-63
2022/12/03 15:28:53;;;;;;;4.30;3.92;;;1.50;99.90;;;;;;4960093;28;20351;-61
2022/12/03 15:31:19;;;;;;;6.45;5.47;;;1.50;99.90;;;;;;4966488;28;20576;-62
2022/12/03 15:33:46;;;;;;;20.77;4.97;;;1.50;99.90;;;;;;4961547;28;20652;-62
2022/12/03 15:36:13;;;;;;;14.57;5.78;;;1.50;99.90;;;;;;4961950;28;20220;-62
2022/12/03 15:38:39;;;;;;;7.57;7.05;;;1.60;99.90;;;;;;4962002;28;20231;-61
2022/12/03 15:41:20;;;;;;;8.20;5.50;;;1.50;99.90;;;;;;4964184;28;20240;-61
2022/12/03 15:43:49;;;;;;;15.48;8.23;;;1.50;99.90;;;;;;4986242;28;20830;-62
2022/12/03 15:46:16;;;;;;;14.55;4.70;;;1.40;99.90;;;;;;4965095;28;20212;-63
2022/12/03 15:48:43;;;;;;;11.85;5.20;;;1.50;99.90;;;;;;4955505;29;20215;-62
2022/12/03 15:51:10;;;;;;;8.82;5.45;;;1.50;99.90;;;;;;4954983;29;20229;-62
2022/12/03 15:53:36;;;;;;;5.35;3.50;;;1.40;99.90;;;;;;4959641;28;20655;-60
2022/12/03 15:56:03;;;;;;;12.07;4.80;;;1.40;99.90;;;;;;4964774;28;20264;-62
2022/12/03 15:58:30;;;;;;;12.50;9.02;;;1.50;99.90;;;;;;4966095;28;20274;-62
2022/12/03 16:00:58;;;;;;;3.78;3.55;;;1.40;99.90;;;;;;4963914;28;20346;-62
2022/12/03 16:03:25;;;;;;;8.75;4.07;;;1.40;99.90;;;;;;4968291;28;20205;-62
2022/12/03 16:05:52;;;;;;;7.65;4.30;;;1.40;99.90;;;;;;4967244;28;20214;-62
2022/12/03 16:08:18;;;;;;;17.15;6.13;;;1.40;99.90;;;;;;4959032;28;20264;-62
2022/12/03 16:10:45;;;;;;;6.95;5.38;;;1.40;99.90;;;;;;4960617;28;20555;-61
2022/12/03 16:13:12;;;;;;;8.95;6.45;;;1.40;99.90;;;;;;4968208;28;20826;-63
2022/12/03 16:15:38;;;;;;;13.00;7.03;;;1.40;99.90;;;;;;4966030;28;20212;-64
2022/12/03 16:18:06;;;;;;;5.40;4.32;;;1.40;99.90;;;;;;4967907;28;20235;-64
2022/12/03 16:20:34;;;;;;;4.75;4.45;;;1.40;99.90;;;;;;4967759;28;20219;-64
2022/12/03 16:23:00;;;;;;;8.23;5.82;;;1.40;99.90;;;;;;4970832;28;20264;-64
2022/12/03 16:25:27;;;;;;;15.77;6.53;;;1.40;99.90;;;;;;4954551;29;20215;-64
2022/12/03 16:27:55;;;;;;;7.03;6.13;;;1.30;99.90;;;;;;4953379;29;20924;-63
2022/12/03 16:30:23;;;;;;;9.07;6.93;;;1.30;99.90;;;;;;4959410;28;20291;-64
2022/12/03 16:32:50;;;;;;;11.50;6.85;;;1.40;99.90;;;;;;4960241;28;20667;-64
2022/12/03 16:35:18;;;;;;;8.98;7.85;;;1.40;99.90;;;;;;4957171;28;20902;-64
2022/12/03 16:37:45;;;;;;;5.72;2.80;;;1.40;99.90;;;;;;4968098;28;20262;-63
2022/12/03 16:40:12;;;;;;;7.57;5.50;;;1.40;99.90;;;;;;4965383;28;20275;-63
2022/12/03 16:42:38;;;;;;;5.38;5.00;;;1.40;99.90;;;;;;4952885;28;20252;-62
2022/12/03 16:47:50;;;;;;;18.98;8.13;;;1.40;99.90;;;;;;4964524;28;20224;-63
2022/12/03 16:50:19;;;;;;;10.48;6.90;;;1.30;99.90;;;;;;4967467;28;20219;-63
2022/12/03 16:52:46;;;;;;;7.82;4.35;;;1.30;99.90;;;;;;4967756;28;20638;-62
2022/12/03 16:55:13;;;;;;;7.30;4.50;;;1.30;99.90;;;;;;4956584;28;20215;-63
2022/12/03 16:57:39;;;;;;;9.05;5.95;;;1.30;99.90;;;;;;4957632;28;20228;-63
2022/12/03 17:00:07;;;;;;;7.47;5.60;;;1.30;99.90;;;;;;4962602;28;20235;-63
2022/12/03 17:02:34;;;;;;;9.80;3.60;;;1.30;99.90;;;;;;4957989;28;20340;-63
2022/12/03 17:05:01;;;;;;;4.43;4.03;;;1.30;99.90;;;;;;4967217;28;20296;-63
2022/12/03 17:07:29;;;;;;;4.50;3.70;;;1.40;99.90;;;;;;4957035;28;20211;-62
2022/12/03 17:09:55;;;;;;;8.10;6.35;;;1.30;99.90;;;;;;4957512;28;20223;-63
2022/12/03 17:12:22;;;;;;;14.77;9.25;;;1.30;99.90;;;;;;4962200;28;20239;-63
2022/12/03 17:14:49;;;;;;;11.80;8.20;;;1.30;99.90;;;;;;4958718;28;20263;-63
2022/12/03 17:17:16;;;;;;;8.43;4.40;;;1.30;99.90;;;;;;4954189;28;20672;-63
2022/12/03 17:19:42;;;;;;;7.18;6.70;;;1.30;99.90;;;;;;4957258;28;20225;-63
2022/12/03 17:22:09;;;;;;;15.77;7.43;;;1.30;99.90;;;;;;4957224;28;20235;-64
2022/12/03 17:24:37;;;;;;;9.13;6.60;;;1.30;99.90;;;;;;4953280;28;20211;-63
2022/12/03 17:27:05;;;;;;;19.30;7.63;;;1.30;99.90;;;;;;4959278;28;20205;-63
2022/12/03 17:29:31;;;;;;;12.82;7.82;;;1.30;99.90;;;;;;4955772;28;20227;-62
2022/12/03 17:31:58;;;;;;;12.25;5.80;;;1.30;99.90;;;;;;4955829;28;20237;-63
2022/12/03 17:34:25;;;;;;;15.20;7.00;;;1.30;99.90;;;;;;4959675;28;20212;-64
2022/12/03 17:36:51;;;;;;;12.85;7.47;;;1.30;99.90;;;;;;4964271;28;20543;-63
2022/12/03 17:39:18;;;;;;;8.05;7.45;;;1.20;99.90;;;;;;4954722;28;20313;-63
2022/12/03 17:41:46;;;;;;;11.63;6.47;;;1.20;99.90;;;;;;4962378;28;20227;-64
2022/12/03 17:44:13;;;;;;;11.35;8.68;;;1.20;99.90;;;;;;4954885;28;20568;-63
2022/12/03 17:46:40;;;;;;;13.27;8.20;;;1.20;99.90;;;;;;4952129;28;20624;-64
2022/12/03 17:49:06;;;;;;;19.67;5.00;;;1.20;99.90;;;;;;4952377;28;20264;-64
2022/12/03 17:51:33;;;;;;;4.30;2.92;;;1.20;99.90;;;;;;4953017;28;20589;-64
2022/12/03 17:53:59;;;;;;;2.55;1.98;;;1.20;99.90;;;;;;4956724;28;20509;-64
2022/12/03 17:56:26;;;;;;;7.75;7.05;;;1.10;99.90;;;;;;4962185;28;20220;-63
2022/12/03 17:58:55;;;;;;;14.27;4.70;;;1.10;99.90;;;;;;4952111;28;20672;-64
2022/12/03 18:01:22;;;;;;;5.50;5.00;;;1.10;99.90;;;;;;4946630;28;20233;-64
2022/12/03 18:03:49;;;;;;;19.15;7.68;;;1.10;99.90;;;;;;4949297;28;20220;-64
2022/12/03 18:06:15;;;;;;;13.25;6.30;;;1.10;99.90;;;;;;4950842;28;20307;-64
2022/12/03 18:08:42;;;;;;;9.98;5.20;;;1.10;99.90;;;;;;4950983;28;20220;-63
2022/12/03 18:11:09;;;;;;;8.48;5.00;;;1.10;99.90;;;;;;4949533;28;20236;-67
2022/12/03 18:13:35;;;;;;;12.63;5.38;;;1.10;99.90;;;;;;4949933;28;20212;-63